Crystal Ace — V7YB2 — position and weather

sailwx.info

Track history (hours):
 
Tides and Currents Weather Stations Pressure Air Temp Water Temp Dewpoint Dewpoint Depression Visibility Wind Speed Wind Dir Waves Ship Positions

Crystal Ace

Last reported at 2018-Apr-14 07:11 UTC. Time now 2018-Apr-21 07:57 UTC.
Position N 38°48' W 075°03'.

Length 200 m; draft 8.6 m.

Type: Cargo ship. MMSI: 538004619.

Date/timePositionNaut miles runAvg speedWind from/ knotsBaromVisibWave heightAir tempDewpointWater temp
2018-Apr-14 07:11N 38°48' W 075°03'2 9.3
2018-Apr-14 07:00N 38°49' W 075°03'4 8.8
2018-Apr-14 06:30N 38°53' W 075°06'815.3
2018-Apr-14 06:00N 39°00' W 075°09'917.3
2018-Apr-14 05:30N 39°08' W 075°14'917.2
2018-Apr-14 05:00N 39°15' W 075°20'918.6
2018-Apr-14 04:30N 39°22' W 075°28'714.5
2018-Apr-14 04:00N 39°28' W 075°34'611.6
2018-Apr-14 03:30N 39°34' W 075°33'4 7.4
2018-Apr-14 03:01N 39°33' W 075°38'4 7.4
2018-Apr-14 02:30N 39°33' W 075°43'4 7.3
2018-Apr-14 02:00N 39°32' W 075°47'3 5.4
2018-Apr-14 01:30N 39°32' W 075°51'4 8.6
2018-Apr-14 01:00N 39°30' W 075°56'712.9
2018-Apr-14 00:30N 39°25' W 076°02'713.3
2018-Apr-14 00:00N 39°22' W 076°09'612.3
2018-Apr-13 23:30N 39°17' W 076°14'611.8
2018-Apr-13 23:01N 39°11' W 076°16'510.6
2018-Apr-13 22:30N 39°10' W 076°23'612.5
2018-Apr-13 22:00N 39°12' W 076°31'4 7.0
2018-Apr-13 21:30N 39°15' W 076°34'0 0.2
2018-Apr-13 21:00N 39°14' W 076°34'0 0.0
2018-Apr-13 20:30N 39°14' W 076°34'0 0.0
2018-Apr-13 20:00N 39°14' W 076°34'0 0.0
2018-Apr-13 19:30N 39°14' W 076°34'0 0.0
2018-Apr-13 19:00N 39°14' W 076°34'0 0.0
2018-Apr-13 18:30N 39°14' W 076°34'0 0.0
2018-Apr-13 18:00N 39°14' W 076°34'0 0.0
2018-Apr-13 17:30N 39°14' W 076°34'0 0.0
2018-Apr-13 17:00N 39°14' W 076°34'0 0.0
2018-Apr-13 16:30N 39°14' W 076°34'0 0.0
2018-Apr-13 16:00N 39°14' W 076°34'0 0.0
2018-Apr-13 15:30N 39°14' W 076°34'0 0.0
2018-Apr-13 15:00N 39°14' W 076°34'0 0.0
2018-Apr-13 14:27N 39°14' W 076°34'0 0.0
2018-Apr-13 14:00N 39°14' W 076°34'0 0.0
2018-Apr-13 13:30N 39°14' W 076°34'0 0.0
2018-Apr-13 13:00N 39°14' W 076°34'0 0.0
2018-Apr-13 12:30N 39°14' W 076°34'0 0.0
2018-Apr-13 12:00N 39°14' W 076°34'0 0.0
2018-Apr-13 11:30N 39°14' W 076°34'0 0.0
2018-Apr-13 11:00N 39°14' W 076°34'0 0.0
2018-Apr-13 10:30N 39°14' W 076°34'0 0.0
2018-Apr-13 10:00N 39°14' W 076°34'0 0.0
2018-Apr-13 09:30N 39°14' W 076°34'0 0.0
2018-Apr-13 09:00N 39°14' W 076°34'0 0.0
2018-Apr-13 08:30N 39°14' W 076°34'0 0.0
2018-Apr-13 08:00N 39°14' W 076°34'0 0.0
2018-Apr-13 07:30N 39°14' W 076°34'0 0.0
2018-Apr-13 07:00N 39°14' W 076°34'0 0.0
2018-Apr-13 06:30N 39°14' W 076°34'0 0.0
2018-Apr-13 06:00N 39°14' W 076°34'0 0.1
2018-Apr-13 05:30N 39°15' W 076°34'1 1.0
2018-Apr-13 05:00N 39°15' W 076°33'3 5.6
2018-Apr-13 04:30N 39°13' W 076°31'5 9.7
2018-Apr-13 04:00N 39°10' W 076°26'713.5
2018-Apr-13 03:31N 39°04' W 076°24'815.0
2018-Apr-13 03:00N 38°56' W 076°23'815.8
2018-Apr-13 02:30N 38°48' W 076°25'815.8
2018-Apr-13 01:59N 38°40' W 076°25'3015.7
2018-Apr-13 00:06N 38°12' W 076°14'116.1
2018-Apr-13 00:00N 38°10' W 076°14'816.2
2018-Apr-12 23:30N 38°02' W 076°13'  
2018-Apr-10 04:17N 26°43' W 079°21'1518.4
2018-Apr-10 03:29N 26°28' W 079°23'918.4
2018-Apr-10 03:00N 26°19' W 079°24'918.4
2018-Apr-10 02:30N 26°10' W 079°25'918.5
2018-Apr-10 02:00N 26°01' W 079°26'1018.7
2018-Apr-10 01:29N 25°51' W 079°27'919.3
2018-Apr-10 01:00N 25°42' W 079°28'1019.7
2018-Apr-10 00:30N 25°32' W 079°29'918.5
2018-Apr-10 00:00N 25°23' W 079°30'918.6
2018-Apr-09 23:30N 25°14' W 079°31'918.0
2018-Apr-09 23:00N 25°05' W 079°31'50116.5
2018-Apr-08 16:39N 22°55' W 088°22'216.9
2018-Apr-08 16:30N 22°55' W 088°24'1117.0
2018-Apr-08 15:52N 22°53' W 088°36'617.0
2018-Apr-08 15:30N 22°52' W 088°42'916.8
2018-Apr-08 15:00N 22°51' W 088°52'916.8
2018-Apr-08 14:28N 22°50' W 089°01'816.8
2018-Apr-08 14:00N 22°49' W 089°10'816.7
2018-Apr-08 13:30N 22°48' W 089°19'1117.7
2018-Apr-08 12:51N 22°47' W 089°31'616.8
2018-Apr-08 12:30N 22°46' W 089°37'816.7
2018-Apr-08 12:00N 22°45' W 089°46'916.5
2018-Apr-08 11:26N 22°44' W 089°56'5516.0
2018-Apr-08 08:00N 22°36' W 090°56'816.1
2018-Apr-08 07:30N 22°35' W 091°04'816.4
2018-Apr-08 07:00N 22°34' W 091°13'816.6
2018-Apr-08 06:30N 22°33' W 091°22'816.5
2018-Apr-08 06:00N 22°32' W 091°31'816.6
2018-Apr-08 05:30N 22°31' W 091°40'816.7
2018-Apr-08 05:00N 22°30' W 091°48'816.8
2018-Apr-08 04:30N 22°24' W 091°55'816.9
2018-Apr-08 04:00N 22°18' W 092°02'817.0
2018-Apr-08 03:30N 22°13' W 092°09'816.9
2018-Apr-08 03:00N 22°07' W 092°16'816.9
2018-Apr-08 02:30N 22°02' W 092°22'816.9
2018-Apr-08 02:00N 21°56' W 092°29'917.8
2018-Apr-08 01:30N 21°50' W 092°36'817.0
2018-Apr-08 01:00N 21°44' W 092°43'917.0
2018-Apr-08 00:29N 21°39' W 092°50'816.9
2018-Apr-08 00:00N 21°33' W 092°57'816.8
2018-Apr-07 23:30N 21°28' W 093°04'816.9
2018-Apr-07 23:00N 21°22' W 093°10'816.8
2018-Apr-07 22:30N 21°16' W 093°17'916.6
2018-Apr-07 22:00N 21°11' W 093°24'17118.6
2018-Apr-07 12:48N 19°16' W 095°40'718.9
2018-Apr-07 12:26N 19°12' W 095°46'819.1
2018-Apr-07 12:00N 19°12' W 095°55'815.7
2018-Apr-07 11:30N 19°11' W 096°03'5 9.2
2018-Apr-07 11:00N 19°12' W 096°07'1 1.9
2018-Apr-07 10:30N 19°13' W 096°08'0 0.0
2018-Apr-07 10:00N 19°13' W 096°08'0 0.0
2018-Apr-07 09:30N 19°13' W 096°08'0 0.0
2018-Apr-07 08:57N 19°13' W 096°08'0 0.0
2018-Apr-07 08:26N 19°13' W 096°08'0 0.0
2018-Apr-07 07:59N 19°13' W 096°08'0 0.0
2018-Apr-07 07:29N 19°13' W 096°08'0 0.0
2018-Apr-07 07:00N 19°13' W 096°08'0 0.0
2018-Apr-07 06:29N 19°13' W 096°08'0 0.0
2018-Apr-07 05:56N 19°13' W 096°08'0 0.0
2018-Apr-07 05:29N 19°13' W 096°08'0 0.0
2018-Apr-07 04:59N 19°13' W 096°08'0 0.0
2018-Apr-07 04:29N 19°13' W 096°08'0 0.0
2018-Apr-07 03:59N 19°13' W 096°08'0 0.0
2018-Apr-07 03:29N 19°13' W 096°08'0 0.0
2018-Apr-07 02:59N 19°13' W 096°08'0 0.0
2018-Apr-07 02:26N 19°13' W 096°08'0 0.0
2018-Apr-07 01:59N 19°13' W 096°08'0 0.0
2018-Apr-07 01:27N 19°13' W 096°08'0 0.0
2018-Apr-07 00:57N 19°13' W 096°08'0 0.0
2018-Apr-07 00:30N 19°13' W 096°08'0 0.0
2018-Apr-06 23:59N 19°13' W 096°08'0 0.0
2018-Apr-06 23:27N 19°13' W 096°08'0 0.0
2018-Apr-06 22:59N 19°13' W 096°08'0 0.0
2018-Apr-06 22:29N 19°13' W 096°08'0 0.0
2018-Apr-06 21:59N 19°13' W 096°08'0 0.0
2018-Apr-06 21:29N 19°13' W 096°08'0 0.0
2018-Apr-06 20:59N 19°13' W 096°08'0 0.0
2018-Apr-06 20:29N 19°13' W 096°08'0 0.0
2018-Apr-06 19:59N 19°13' W 096°08'0 0.0
2018-Apr-06 19:30N 19°13' W 096°08'0 0.0
2018-Apr-06 18:59N 19°13' W 096°08'0 0.0
2018-Apr-06 18:26N 19°13' W 096°08'0 0.0
2018-Apr-06 17:56N 19°13' W 096°08'0 0.0
2018-Apr-06 17:26N 19°13' W 096°08'0 0.0
2018-Apr-06 16:59N 19°13' W 096°08'0 0.0
2018-Apr-06 16:29N 19°13' W 096°08'0 0.0
2018-Apr-06 15:59N 19°13' W 096°08'0 0.0
2018-Apr-06 15:29N 19°13' W 096°08'0 0.0
2018-Apr-06 15:00N 19°13' W 096°08'0 0.0
2018-Apr-06 14:27N 19°13' W 096°08'0 0.0
2018-Apr-06 14:00N 19°13' W 096°08'0 0.0
2018-Apr-06 13:29N 19°13' W 096°08'0 0.0
2018-Apr-06 12:56N 19°13' W 096°08'0 0.0
2018-Apr-06 12:29N 19°13' W 096°08'0 0.0
2018-Apr-06 11:59N 19°13' W 096°08'0 0.0
2018-Apr-06 11:29N 19°13' W 096°08'0 0.0
2018-Apr-06 11:00N 19°13' W 096°08'0 0.0
2018-Apr-06 10:27N 19°13' W 096°08'0 0.0
2018-Apr-06 10:00N 19°13' W 096°08'0 0.0
2018-Apr-06 09:29N 19°13' W 096°08'0 0.0
2018-Apr-06 08:51N 19°13' W 096°08'0 0.0
2018-Apr-06 08:30N 19°13' W 096°08'0 0.0
2018-Apr-06 08:00N 19°13' W 096°08'0 0.0
2018-Apr-06 07:26N 19°13' W 096°08'0 0.0
2018-Apr-06 07:00N 19°13' W 096°08'0 0.0
2018-Apr-06 06:30N 19°13' W 096°08'0 0.0
2018-Apr-06 05:59N 19°13' W 096°08'0 0.0
2018-Apr-06 05:30N 19°13' W 096°08'0 0.0
2018-Apr-06 05:00N 19°13' W 096°08'0 0.0
2018-Apr-06 04:30N 19°13' W 096°08'0 0.0
2018-Apr-06 04:00N 19°13' W 096°08'0 0.0
2018-Apr-06 03:27N 19°13' W 096°08'0 0.0
2018-Apr-06 02:59N 19°13' W 096°08'0 0.0
2018-Apr-06 02:30N 19°13' W 096°08'0 0.9
2018-Apr-06 01:59N 19°12' W 096°08'3 7.1
2018-Apr-06 01:30N 19°12' W 096°04'3 6.9
2018-Apr-06 01:00N 19°12' W 096°01'510.2
2018-Apr-06 00:30N 19°15' W 095°56'510.6
2018-Apr-06 00:00N 19°15' W 095°50'510.2
2018-Apr-05 23:30N 19°14' W 095°45'2 3.3
2018-Apr-05 22:53N 19°12' W 095°45'4 2.2
2018-Apr-05 21:10N 19°15' W 095°47'0 2.2
2018-Apr-05 21:00N 19°16' W 095°47'1 2.2
2018-Apr-05 20:29N 19°17' W 095°47'1 2.2
2018-Apr-05 20:00N 19°18' W 095°48'1 2.3
2018-Apr-05 19:30N 19°19' W 095°48'1 2.2
2018-Apr-05 18:58N 19°20' W 095°47'1 2.2
2018-Apr-05 18:30N 19°21' W 095°48'1 2.2
2018-Apr-05 18:00N 19°22' W 095°47'1 2.2
2018-Apr-05 17:30N 19°23' W 095°47'1 2.2
2018-Apr-05 16:57N 19°25' W 095°47'1 2.2
2018-Apr-05 16:30N 19°26' W 095°47'1 2.1
2018-Apr-05 16:00N 19°27' W 095°47'1 2.1
2018-Apr-05 15:30N 19°28' W 095°48'1 2.1
2018-Apr-05 14:58N 19°28' W 095°49'1 2.0
2018-Apr-05 14:25N 19°29' W 095°50'2 5.1
2018-Apr-05 14:00N 19°28' W 095°52'612.2
2018-Apr-05 13:30N 19°25' W 095°57'612.1
2018-Apr-05 13:00N 19°23' W 096°03'1 1.8
2018-Apr-05 12:30N 19°23' W 096°04'1 2.5
2018-Apr-05 12:00N 19°23' W 096°03'1 2.5
2018-Apr-05 11:30N 19°24' W 096°02'1 2.8
2018-Apr-05 11:00N 19°25' W 096°01'2 3.1
2018-Apr-05 10:30N 19°26' W 095°60'2 3.2
2018-Apr-05 10:00N 19°27' W 095°58'2 3.5
2018-Apr-05 09:30N 19°28' W 095°57'2 3.4
2018-Apr-05 09:00N 19°29' W 095°56'1 2.7
2018-Apr-05 08:30N 19°30' W 095°54'1 1.8
2018-Apr-05 08:00N 19°31' W 095°54'1 1.2
2018-Apr-05 07:30N 19°31' W 095°53'0 0.8
2018-Apr-05 07:00N 19°31' W 095°53'0 0.7
2018-Apr-05 06:30N 19°32' W 095°53'0 0.8
2018-Apr-05 06:00N 19°32' W 095°52'0 0.9
2018-Apr-05 05:29N 19°32' W 095°52'0 0.9
2018-Apr-05 05:00N 19°33' W 095°52'0 0.9
2018-Apr-05 04:28N 19°33' W 095°52'0 0.8
2018-Apr-05 04:00N 19°34' W 095°53'1 1.1
2018-Apr-05 03:29N 19°34' W 095°53'6 9.7
2018-Apr-05 02:54N 19°31' W 095°58'512.0
2018-Apr-05 02:29N 19°28' W 096°03'611.1
2018-Apr-05 01:59N 19°23' W 096°02'1 1.9
2018-Apr-05 01:30N 19°22' W 096°02'1 1.8
2018-Apr-05 01:00N 19°23' W 096°02'1 2.0
2018-Apr-05 00:30N 19°24' W 096°02'1 2.0
2018-Apr-05 00:00N 19°25' W 096°02'1 2.0
2018-Apr-04 23:30N 19°26' W 096°02'1 2.0
2018-Apr-04 23:00N 19°27' W 096°02'1 2.0
2018-Apr-04 22:29N 19°28' W 096°01'1 2.1
2018-Apr-04 22:00N 19°29' W 096°01'1 2.1
2018-Apr-04 21:28N 19°30' W 096°01'1 2.1
2018-Apr-04 21:00N 19°31' W 096°01'2 2.2
2018-Apr-04 20:17N 19°33' W 096°00'1 2.2
2018-Apr-04 19:57N 19°33' W 096°00'2 1.9
2018-Apr-04 18:52N 19°35' W 095°59'1 2.3
2018-Apr-04 18:16N 19°34' W 095°58'414.4
2018-Apr-04 17:59N 19°30' W 095°57'817.1
2018-Apr-04 17:30N 19°22' W 095°57'712.8
2018-Apr-04 17:00N 19°15' W 095°58'611.2
2018-Apr-04 16:30N 19°10' W 095°59'3 5.8
2018-Apr-04 15:56N 19°08' W 096°02'0 0.2
2018-Apr-04 15:26N 19°08' W 096°02'0 0.0
2018-Apr-04 14:56N 19°08' W 096°02'0 0.2
2018-Apr-04 14:20N 19°08' W 096°02'0 0.1
2018-Apr-04 13:56N 19°08' W 096°02'0 0.0
2018-Apr-04 13:26N 19°08' W 096°02'0 0.0
2018-Apr-04 12:56N 19°08' W 096°02'0 0.0
2018-Apr-04 12:26N 19°08' W 096°02'0 0.1
2018-Apr-04 11:56N 19°08' W 096°02'0 0.0
2018-Apr-04 11:26N 19°08' W 096°02'0 0.0
2018-Apr-04 10:56N 19°08' W 096°02'0 0.0
2018-Apr-04 10:26N 19°08' W 096°02'0 0.0
2018-Apr-04 09:50N 19°08' W 096°02'0 0.0
2018-Apr-04 09:26N 19°08' W 096°02'0 0.0
2018-Apr-04 08:56N 19°08' W 096°02'0 0.0
2018-Apr-04 08:26N 19°08' W 096°02'0 0.0
2018-Apr-04 07:56N 19°08' W 096°02'0 0.0
2018-Apr-04 07:14N 19°08' W 096°02'  
Track history (hours):
 
Tides and Currents Weather Stations Pressure Air Temp Water Temp Dewpoint Dewpoint Depression Visibility Wind Speed Wind Dir Waves Ship Positions

Crystal Ace

Last reported at 2018-Apr-14 07:11 UTC. Time now 2018-Apr-21 07:57 UTC.
Position N 38°48' W 075°03'.

Length 200 m; draft 8.6 m.

Type: Cargo ship. MMSI: 538004619.

Date/timePositionNaut miles runAvg speedWind from/ knotsBaromVisibWave heightAir tempDewpointWater temp
2018-Apr-14 07:11N 38°48' W 075°03'2 9.3
2018-Apr-14 07:00N 38°49' W 075°03'4 8.8
2018-Apr-14 06:30N 38°53' W 075°06'815.3
2018-Apr-14 06:00N 39°00' W 075°09'917.3
2018-Apr-14 05:30N 39°08' W 075°14'917.2
2018-Apr-14 05:00N 39°15' W 075°20'918.6
2018-Apr-14 04:30N 39°22' W 075°28'714.5
2018-Apr-14 04:00N 39°28' W 075°34'611.6
2018-Apr-14 03:30N 39°34' W 075°33'4 7.4
2018-Apr-14 03:01N 39°33' W 075°38'4 7.4
2018-Apr-14 02:30N 39°33' W 075°43'4 7.3
2018-Apr-14 02:00N 39°32' W 075°47'3 5.4
2018-Apr-14 01:30N 39°32' W 075°51'4 8.6
2018-Apr-14 01:00N 39°30' W 075°56'712.9
2018-Apr-14 00:30N 39°25' W 076°02'713.3
2018-Apr-14 00:00N 39°22' W 076°09'612.3
2018-Apr-13 23:30N 39°17' W 076°14'611.8
2018-Apr-13 23:01N 39°11' W 076°16'510.6
2018-Apr-13 22:30N 39°10' W 076°23'612.5
2018-Apr-13 22:00N 39°12' W 076°31'4 7.0
2018-Apr-13 21:30N 39°15' W 076°34'0 0.2
2018-Apr-13 21:00N 39°14' W 076°34'0 0.0
2018-Apr-13 20:30N 39°14' W 076°34'0 0.0
2018-Apr-13 20:00N 39°14' W 076°34'0 0.0
2018-Apr-13 19:30N 39°14' W 076°34'0 0.0
2018-Apr-13 19:00N 39°14' W 076°34'0 0.0
2018-Apr-13 18:30N 39°14' W 076°34'0 0.0
2018-Apr-13 18:00N 39°14' W 076°34'0 0.0
2018-Apr-13 17:30N 39°14' W 076°34'0 0.0
2018-Apr-13 17:00N 39°14' W 076°34'0 0.0
2018-Apr-13 16:30N 39°14' W 076°34'0 0.0
2018-Apr-13 16:00N 39°14' W 076°34'0 0.0
2018-Apr-13 15:30N 39°14' W 076°34'0 0.0
2018-Apr-13 15:00N 39°14' W 076°34'0 0.0
2018-Apr-13 14:27N 39°14' W 076°34'0 0.0
2018-Apr-13 14:00N 39°14' W 076°34'0 0.0
2018-Apr-13 13:30N 39°14' W 076°34'0 0.0
2018-Apr-13 13:00N 39°14' W 076°34'0 0.0
2018-Apr-13 12:30N 39°14' W 076°34'0 0.0
2018-Apr-13 12:00N 39°14' W 076°34'0 0.0
2018-Apr-13 11:30N 39°14' W 076°34'0 0.0
2018-Apr-13 11:00N 39°14' W 076°34'0 0.0
2018-Apr-13 10:30N 39°14' W 076°34'0 0.0
2018-Apr-13 10:00N 39°14' W 076°34'0 0.0
2018-Apr-13 09:30N 39°14' W 076°34'0 0.0
2018-Apr-13 09:00N 39°14' W 076°34'0 0.0
2018-Apr-13 08:30N 39°14' W 076°34'0 0.0
2018-Apr-13 08:00N 39°14' W 076°34'0 0.0
2018-Apr-13 07:30N 39°14' W 076°34'0 0.0
2018-Apr-13 07:00N 39°14' W 076°34'0 0.0
2018-Apr-13 06:30N 39°14' W 076°34'0 0.0
2018-Apr-13 06:00N 39°14' W 076°34'0 0.1
2018-Apr-13 05:30N 39°15' W 076°34'1 1.0
2018-Apr-13 05:00N 39°15' W 076°33'3 5.6
2018-Apr-13 04:30N 39°13' W 076°31'5 9.7
2018-Apr-13 04:00N 39°10' W 076°26'713.5
2018-Apr-13 03:31N 39°04' W 076°24'815.0
2018-Apr-13 03:00N 38°56' W 076°23'815.8
2018-Apr-13 02:30N 38°48' W 076°25'815.8
2018-Apr-13 01:59N 38°40' W 076°25'3015.7
2018-Apr-13 00:06N 38°12' W 076°14'116.1
2018-Apr-13 00:00N 38°10' W 076°14'816.2
2018-Apr-12 23:30N 38°02' W 076°13'  
2018-Apr-10 04:17N 26°43' W 079°21'1518.4
2018-Apr-10 03:29N 26°28' W 079°23'918.4
2018-Apr-10 03:00N 26°19' W 079°24'918.4
2018-Apr-10 02:30N 26°10' W 079°25'918.5
2018-Apr-10 02:00N 26°01' W 079°26'1018.7
2018-Apr-10 01:29N 25°51' W 079°27'919.3
2018-Apr-10 01:00N 25°42' W 079°28'1019.7
2018-Apr-10 00:30N 25°32' W 079°29'918.5
2018-Apr-10 00:00N 25°23' W 079°30'918.6
2018-Apr-09 23:30N 25°14' W 079°31'918.0
2018-Apr-09 23:00N 25°05' W 079°31'50116.5
2018-Apr-08 16:39N 22°55' W 088°22'216.9
2018-Apr-08 16:30N 22°55' W 088°24'1117.0
2018-Apr-08 15:52N 22°53' W 088°36'617.0
2018-Apr-08 15:30N 22°52' W 088°42'916.8
2018-Apr-08 15:00N 22°51' W 088°52'916.8
2018-Apr-08 14:28N 22°50' W 089°01'816.8
2018-Apr-08 14:00N 22°49' W 089°10'816.7
2018-Apr-08 13:30N 22°48' W 089°19'1117.7
2018-Apr-08 12:51N 22°47' W 089°31'616.8
2018-Apr-08 12:30N 22°46' W 089°37'816.7
2018-Apr-08 12:00N 22°45' W 089°46'916.5
2018-Apr-08 11:26N 22°44' W 089°56'5516.0
2018-Apr-08 08:00N 22°36' W 090°56'816.1
2018-Apr-08 07:30N 22°35' W 091°04'816.4
2018-Apr-08 07:00N 22°34' W 091°13'816.6
2018-Apr-08 06:30N 22°33' W 091°22'816.5
2018-Apr-08 06:00N 22°32' W 091°31'816.6
2018-Apr-08 05:30N 22°31' W 091°40'816.7
2018-Apr-08 05:00N 22°30' W 091°48'816.8
2018-Apr-08 04:30N 22°24' W 091°55'816.9
2018-Apr-08 04:00N 22°18' W 092°02'817.0
2018-Apr-08 03:30N 22°13' W 092°09'816.9
2018-Apr-08 03:00N 22°07' W 092°16'816.9
2018-Apr-08 02:30N 22°02' W 092°22'816.9
2018-Apr-08 02:00N 21°56' W 092°29'917.8
2018-Apr-08 01:30N 21°50' W 092°36'817.0
2018-Apr-08 01:00N 21°44' W 092°43'917.0
2018-Apr-08 00:29N 21°39' W 092°50'816.9
2018-Apr-08 00:00N 21°33' W 092°57'816.8
2018-Apr-07 23:30N 21°28' W 093°04'816.9
2018-Apr-07 23:00N 21°22' W 093°10'816.8
2018-Apr-07 22:30N 21°16' W 093°17'916.6
2018-Apr-07 22:00N 21°11' W 093°24'17118.6
2018-Apr-07 12:48N 19°16' W 095°40'718.9
2018-Apr-07 12:26N 19°12' W 095°46'819.1
2018-Apr-07 12:00N 19°12' W 095°55'815.7
2018-Apr-07 11:30N 19°11' W 096°03'5 9.2
2018-Apr-07 11:00N 19°12' W 096°07'1 1.9
2018-Apr-07 10:30N 19°13' W 096°08'0 0.0
2018-Apr-07 10:00N 19°13' W 096°08'0 0.0
2018-Apr-07 09:30N 19°13' W 096°08'0 0.0
2018-Apr-07 08:57N 19°13' W 096°08'0 0.0
2018-Apr-07 08:26N 19°13' W 096°08'0 0.0
2018-Apr-07 07:59N 19°13' W 096°08'0 0.0
2018-Apr-07 07:29N 19°13' W 096°08'0 0.0
2018-Apr-07 07:00N 19°13' W 096°08'0 0.0
2018-Apr-07 06:29N 19°13' W 096°08'0 0.0
2018-Apr-07 05:56N 19°13' W 096°08'0 0.0
2018-Apr-07 05:29N 19°13' W 096°08'0 0.0
2018-Apr-07 04:59N 19°13' W 096°08'0 0.0
2018-Apr-07 04:29N 19°13' W 096°08'0 0.0
2018-Apr-07 03:59N 19°13' W 096°08'0 0.0
2018-Apr-07 03:29N 19°13' W 096°08'0 0.0
2018-Apr-07 02:59N 19°13' W 096°08'0 0.0
2018-Apr-07 02:26N 19°13' W 096°08'0 0.0
2018-Apr-07 01:59N 19°13' W 096°08'0 0.0
2018-Apr-07 01:27N 19°13' W 096°08'0 0.0
2018-Apr-07 00:57N 19°13' W 096°08'0 0.0
2018-Apr-07 00:30N 19°13' W 096°08'0 0.0
2018-Apr-06 23:59N 19°13' W 096°08'0 0.0
2018-Apr-06 23:27N 19°13' W 096°08'0 0.0
2018-Apr-06 22:59N 19°13' W 096°08'0 0.0
2018-Apr-06 22:29N 19°13' W 096°08'0 0.0
2018-Apr-06 21:59N 19°13' W 096°08'0 0.0
2018-Apr-06 21:29N 19°13' W 096°08'0 0.0
2018-Apr-06 20:59N 19°13' W 096°08'0 0.0
2018-Apr-06 20:29N 19°13' W 096°08'0 0.0
2018-Apr-06 19:59N 19°13' W 096°08'0 0.0
2018-Apr-06 19:30N 19°13' W 096°08'0 0.0
2018-Apr-06 18:59N 19°13' W 096°08'0 0.0
2018-Apr-06 18:26N 19°13' W 096°08'0 0.0
2018-Apr-06 17:56N 19°13' W 096°08'0 0.0
2018-Apr-06 17:26N 19°13' W 096°08'0 0.0
2018-Apr-06 16:59N 19°13' W 096°08'0 0.0
2018-Apr-06 16:29N 19°13' W 096°08'0 0.0
2018-Apr-06 15:59N 19°13' W 096°08'0 0.0
2018-Apr-06 15:29N 19°13' W 096°08'0 0.0
2018-Apr-06 15:00N 19°13' W 096°08'0 0.0
2018-Apr-06 14:27N 19°13' W 096°08'0 0.0
2018-Apr-06 14:00N 19°13' W 096°08'0 0.0
2018-Apr-06 13:29N 19°13' W 096°08'0 0.0
2018-Apr-06 12:56N 19°13' W 096°08'0 0.0
2018-Apr-06 12:29N 19°13' W 096°08'0 0.0
2018-Apr-06 11:59N 19°13' W 096°08'0 0.0
2018-Apr-06 11:29N 19°13' W 096°08'0 0.0
2018-Apr-06 11:00N 19°13' W 096°08'0 0.0
2018-Apr-06 10:27N 19°13' W 096°08'0 0.0
2018-Apr-06 10:00N 19°13' W 096°08'0 0.0
2018-Apr-06 09:29N 19°13' W 096°08'0 0.0
2018-Apr-06 08:51N 19°13' W 096°08'0 0.0
2018-Apr-06 08:30N 19°13' W 096°08'0 0.0
2018-Apr-06 08:00N 19°13' W 096°08'0 0.0
2018-Apr-06 07:26N 19°13' W 096°08'0 0.0
2018-Apr-06 07:00N 19°13' W 096°08'0 0.0
2018-Apr-06 06:30N 19°13' W 096°08'0 0.0
2018-Apr-06 05:59N 19°13' W 096°08'0 0.0
2018-Apr-06 05:30N 19°13' W 096°08'0 0.0
2018-Apr-06 05:00N 19°13' W 096°08'0 0.0
2018-Apr-06 04:30N 19°13' W 096°08'0 0.0
2018-Apr-06 04:00N 19°13' W 096°08'0 0.0
2018-Apr-06 03:27N 19°13' W 096°08'0 0.0
2018-Apr-06 02:59N 19°13' W 096°08'0 0.0
2018-Apr-06 02:30N 19°13' W 096°08'0 0.9
2018-Apr-06 01:59N 19°12' W 096°08'3 7.1
2018-Apr-06 01:30N 19°12' W 096°04'3 6.9
2018-Apr-06 01:00N 19°12' W 096°01'510.2
2018-Apr-06 00:30N 19°15' W 095°56'510.6
2018-Apr-06 00:00N 19°15' W 095°50'510.2
2018-Apr-05 23:30N 19°14' W 095°45'2 3.3
2018-Apr-05 22:53N 19°12' W 095°45'4 2.2
2018-Apr-05 21:10N 19°15' W 095°47'0 2.2
2018-Apr-05 21:00N 19°16' W 095°47'1 2.2
2018-Apr-05 20:29N 19°17' W 095°47'1 2.2
2018-Apr-05 20:00N 19°18' W 095°48'1 2.3
2018-Apr-05 19:30N 19°19' W 095°48'1 2.2
2018-Apr-05 18:58N 19°20' W 095°47'1 2.2
2018-Apr-05 18:30N 19°21' W 095°48'1 2.2
2018-Apr-05 18:00N 19°22' W 095°47'1 2.2
2018-Apr-05 17:30N 19°23' W 095°47'1 2.2
2018-Apr-05 16:57N 19°25' W 095°47'1 2.2
2018-Apr-05 16:30N 19°26' W 095°47'1 2.1
2018-Apr-05 16:00N 19°27' W 095°47'1 2.1
2018-Apr-05 15:30N 19°28' W 095°48'1 2.1
2018-Apr-05 14:58N 19°28' W 095°49'1 2.0
2018-Apr-05 14:25N 19°29' W 095°50'2 5.1
2018-Apr-05 14:00N 19°28' W 095°52'612.2
2018-Apr-05 13:30N 19°25' W 095°57'612.1
2018-Apr-05 13:00N 19°23' W 096°03'1 1.8
2018-Apr-05 12:30N 19°23' W 096°04'1 2.5
2018-Apr-05 12:00N 19°23' W 096°03'1 2.5
2018-Apr-05 11:30N 19°24' W 096°02'1 2.8
2018-Apr-05 11:00N 19°25' W 096°01'2 3.1
2018-Apr-05 10:30N 19°26' W 095°60'2 3.2
2018-Apr-05 10:00N 19°27' W 095°58'2 3.5
2018-Apr-05 09:30N 19°28' W 095°57'2 3.4
2018-Apr-05 09:00N 19°29' W 095°56'1 2.7
2018-Apr-05 08:30N 19°30' W 095°54'1 1.8
2018-Apr-05 08:00N 19°31' W 095°54'1 1.2
2018-Apr-05 07:30N 19°31' W 095°53'0 0.8
2018-Apr-05 07:00N 19°31' W 095°53'0 0.7
2018-Apr-05 06:30N 19°32' W 095°53'0 0.8
2018-Apr-05 06:00N 19°32' W 095°52'0 0.9
2018-Apr-05 05:29N 19°32' W 095°52'0 0.9
2018-Apr-05 05:00N 19°33' W 095°52'0 0.9
2018-Apr-05 04:28N 19°33' W 095°52'0 0.8
2018-Apr-05 04:00N 19°34' W 095°53'1 1.1
2018-Apr-05 03:29N 19°34' W 095°53'6 9.7
2018-Apr-05 02:54N 19°31' W 095°58'512.0
2018-Apr-05 02:29N 19°28' W 096°03'611.1
2018-Apr-05 01:59N 19°23' W 096°02'1 1.9
2018-Apr-05 01:30N 19°22' W 096°02'1 1.8
2018-Apr-05 01:00N 19°23' W 096°02'1 2.0
2018-Apr-05 00:30N 19°24' W 096°02'1 2.0
2018-Apr-05 00:00N 19°25' W 096°02'1 2.0
2018-Apr-04 23:30N 19°26' W 096°02'1 2.0
2018-Apr-04 23:00N 19°27' W 096°02'1 2.0
2018-Apr-04 22:29N 19°28' W 096°01'1 2.1
2018-Apr-04 22:00N 19°29' W 096°01'1 2.1
2018-Apr-04 21:28N 19°30' W 096°01'1 2.1
2018-Apr-04 21:00N 19°31' W 096°01'2 2.2
2018-Apr-04 20:17N 19°33' W 096°00'1 2.2
2018-Apr-04 19:57N 19°33' W 096°00'2 1.9
2018-Apr-04 18:52N 19°35' W 095°59'1 2.3
2018-Apr-04 18:16N 19°34' W 095°58'414.4
2018-Apr-04 17:59N 19°30' W 095°57'817.1
2018-Apr-04 17:30N 19°22' W 095°57'712.8
2018-Apr-04 17:00N 19°15' W 095°58'611.2
2018-Apr-04 16:30N 19°10' W 095°59'3 5.8
2018-Apr-04 15:56N 19°08' W 096°02'0 0.2
2018-Apr-04 15:26N 19°08' W 096°02'0 0.0
2018-Apr-04 14:56N 19°08' W 096°02'0 0.2
2018-Apr-04 14:20N 19°08' W 096°02'0 0.1
2018-Apr-04 13:56N 19°08' W 096°02'0 0.0
2018-Apr-04 13:26N 19°08' W 096°02'0 0.0
2018-Apr-04 12:56N 19°08' W 096°02'0 0.0
2018-Apr-04 12:26N 19°08' W 096°02'0 0.1
2018-Apr-04 11:56N 19°08' W 096°02'0 0.0
2018-Apr-04 11:26N 19°08' W 096°02'0 0.0
2018-Apr-04 10:56N 19°08' W 096°02'0 0.0
2018-Apr-04 10:26N 19°08' W 096°02'0 0.0
2018-Apr-04 09:50N 19°08' W 096°02'0 0.0
2018-Apr-04 09:26N 19°08' W 096°02'0 0.0
2018-Apr-04 08:56N 19°08' W 096°02'0 0.0
2018-Apr-04 08:26N 19°08' W 096°02'0 0.0
2018-Apr-04 07:56N 19°08' W 096°02'0 0.0
2018-Apr-04 07:14N 19°08' W 096°02'  

Dump ship's entire track history